createdAt,value
2023-05-18T00:02:58.236Z,7.93
2023-05-18T00:08:01.828Z,7.93
2023-05-18T00:13:05.568Z,7.80
2023-05-18T00:18:08.686Z,9.75
2023-05-18T00:23:16.689Z,8.43
2023-05-18T00:28:19.398Z,8.88
2023-05-18T00:33:23.014Z,8.00
2023-05-18T00:38:25.775Z,8.20
2023-05-18T00:43:28.590Z,9.18
2023-05-18T00:48:31.373Z,8.73
2023-05-18T00:53:34.319Z,9.10
2023-05-18T00:58:42.137Z,8.73
2023-05-18T01:03:45.051Z,8.43
2023-05-18T01:08:48.653Z,9.07
2023-05-18T01:14:22.301Z,8.63
2023-05-18T01:19:43.232Z,8.60
2023-05-18T01:24:49.368Z,8.98
2023-05-18T01:29:56.496Z,8.90
2023-05-18T01:34:59.218Z,8.63
2023-05-18T01:40:02.165Z,9.48
2023-05-18T01:45:15.032Z,7.68
2023-05-18T01:50:22.727Z,9.23
2023-05-18T01:55:30.162Z,7.60
2023-05-18T02:00:33.747Z,8.93
2023-05-18T02:05:36.503Z,8.57
2023-05-18T02:10:39.463Z,8.75
2023-05-18T02:15:44.804Z,8.15
2023-05-18T02:20:49.856Z,7.38
2023-05-18T02:25:55.543Z,7.05
2023-05-18T02:31:06.821Z,7.30
2023-05-18T02:36:13.146Z,7.43
2023-05-18T02:41:17.119Z,6.85
2023-05-18T02:46:20.027Z,7.38
2023-05-18T02:51:23.146Z,6.85
2023-05-18T02:56:26.423Z,5.80
2023-05-18T03:01:41.333Z,6.97
2023-05-18T03:06:46.715Z,6.45
2023-05-18T03:11:51.912Z,6.63
2023-05-18T03:16:58.133Z,6.03
2023-05-18T03:22:01.506Z,6.55
2023-05-18T03:27:05.339Z,6.75
2023-05-18T03:32:08.402Z,5.75
2023-05-18T03:37:14.473Z,5.78
2023-05-18T03:42:17.481Z,5.82
2023-05-18T03:47:22.325Z,5.50
2023-05-18T03:52:25.525Z,5.07
2023-05-18T03:57:29.723Z,5.57
2023-05-18T04:02:32.994Z,4.63
2023-05-18T04:07:43.957Z,4.32
2023-05-18T04:12:46.908Z,5.15
2023-05-18T04:17:52.106Z,5.15
2023-05-18T04:22:55.585Z,4.70
2023-05-18T04:28:01.523Z,4.47
2023-05-18T04:33:06.778Z,4.60
2023-05-18T04:38:10.953Z,4.65
2023-05-18T04:43:13.806Z,4.90
2023-05-18T04:48:19.347Z,4.47
2023-05-18T04:53:23.292Z,5.35
2023-05-18T04:58:26.154Z,4.75
2023-05-18T05:03:29.217Z,5.20
2023-05-18T05:08:32.230Z,4.32
2023-05-18T05:13:36.290Z,3.95
2023-05-18T05:18:39.295Z,4.28
2023-05-18T05:23:42.258Z,4.13
2023-05-18T05:28:45.980Z,3.97
2023-05-18T05:33:48.690Z,3.70
2023-05-18T05:38:51.593Z,3.97
2023-05-18T05:43:54.650Z,4.60
2023-05-18T05:48:57.406Z,4.85
2023-05-18T05:54:00.125Z,4.30
2023-05-18T05:59:03.075Z,4.47
2023-05-18T06:04:10.715Z,3.97
2023-05-18T06:09:14.038Z,4.18
2023-05-18T06:14:16.999Z,5.10
2023-05-18T06:19:20.766Z,4.50
2023-05-18T06:24:23.961Z,10.65
2023-05-18T06:29:49.249Z,4.03
2023-05-18T06:35:09.058Z,8.40
2023-05-18T06:40:11.996Z,3.90
2023-05-18T06:45:15.189Z,3.45
2023-05-18T06:50:25.809Z,3.53
2023-05-18T06:55:29.287Z,2.80
2023-05-18T07:00:34.102Z,3.03
2023-05-18T07:05:39.595Z,3.20
2023-05-18T07:10:43.281Z,3.38
2023-05-18T07:15:46.016Z,3.13
2023-05-18T07:20:48.756Z,3.00
2023-05-18T07:25:51.899Z,3.10
2023-05-18T07:30:54.637Z,3.38
2023-05-18T07:35:57.567Z,2.83
2023-05-18T07:41:00.538Z,3.40
2023-05-18T07:46:03.353Z,3.53
2023-05-18T07:51:06.208Z,3.47
2023-05-18T07:56:09.416Z,3.58
2023-05-18T08:01:12.348Z,2.95
2023-05-18T08:06:15.163Z,3.40
2023-05-18T08:11:17.918Z,3.10
2023-05-18T08:16:21.094Z,3.13
2023-05-18T08:21:26.381Z,3.30
2023-05-18T08:26:29.161Z,2.58
2023-05-18T08:31:32.305Z,3.25
2023-05-18T08:36:36.246Z,2.90
2023-05-18T08:41:48.016Z,3.53
2023-05-18T08:46:51.577Z,3.53
2023-05-18T08:52:03.426Z,3.45
2023-05-18T08:57:12.120Z,2.80
2023-05-18T09:02:15.473Z,2.80
2023-05-18T09:07:19.077Z,2.80
2023-05-18T09:12:25.536Z,2.45
2023-05-18T09:17:28.206Z,2.80
2023-05-18T09:22:31.311Z,2.88
2023-05-18T09:27:34.291Z,3.00
2023-05-18T09:32:37.176Z,3.10
2023-05-18T09:37:43.571Z,3.30
2023-05-18T09:42:46.343Z,3.03
2023-05-18T09:47:50.625Z,3.03
2023-05-18T09:52:53.447Z,3.08
2023-05-18T09:57:56.815Z,2.75
2023-05-18T10:03:01.170Z,5.15
2023-05-18T10:08:04.177Z,3.58
2023-05-18T10:13:07.182Z,3.08
2023-05-18T10:18:09.909Z,2.75
2023-05-18T10:23:13.188Z,2.80
2023-05-18T10:28:33.076Z,2.92
2023-05-18T10:33:37.481Z,2.67
2023-05-18T10:38:45.433Z,2.72
2023-05-18T10:43:48.874Z,3.10
2023-05-18T10:48:53.253Z,2.90
2023-05-18T10:54:10.874Z,4.68
2023-05-18T10:59:15.062Z,3.17
2023-05-18T11:04:24.864Z,3.13
2023-05-18T11:09:29.608Z,2.43
2023-05-18T11:14:33.099Z,2.85
2023-05-18T11:19:37.109Z,2.78
2023-05-18T11:24:42.545Z,2.83
2023-05-18T11:29:46.758Z,2.80
2023-05-18T11:34:54.223Z,3.03
2023-05-18T11:40:01.109Z,2.60
2023-05-18T11:45:09.436Z,2.83
2023-05-18T11:50:12.848Z,3.15
2023-05-18T11:55:20.169Z,3.15
2023-05-18T12:00:24.868Z,3.67
2023-05-18T12:05:30.817Z,2.53
2023-05-18T12:10:36.878Z,4.00
2023-05-18T12:15:40.605Z,3.05
2023-05-18T12:20:43.799Z,2.85
2023-05-18T12:25:46.576Z,3.85
2023-05-18T12:30:49.267Z,5.43
2023-05-18T12:35:55.026Z,3.05
2023-05-18T12:40:57.694Z,2.90
2023-05-18T12:46:05.135Z,3.50
2023-05-18T12:51:18.256Z,3.83
2023-05-18T12:56:21.126Z,3.22
2023-05-18T13:01:25.189Z,2.70
2023-05-18T13:06:27.918Z,3.00
2023-05-18T13:11:30.599Z,2.55
2023-05-18T13:16:37.505Z,2.22
2023-05-18T13:21:40.490Z,2.35
2023-05-18T13:26:43.192Z,2.25
2023-05-18T13:31:46.010Z,2.30
2023-05-18T13:36:48.776Z,1.92
2023-05-18T13:41:51.362Z,2.60
2023-05-18T13:46:54.011Z,3.28
2023-05-18T13:51:59.524Z,2.60
2023-05-18T13:57:02.524Z,2.70
2023-05-18T14:02:05.451Z,2.17
2023-05-18T14:07:09.639Z,2.88
2023-05-18T14:12:13.173Z,3.33
2023-05-18T14:17:15.849Z,3.35
2023-05-18T14:22:18.944Z,3.78
2023-05-18T14:27:21.873Z,3.25
2023-05-18T14:32:24.706Z,2.95
2023-05-18T14:37:27.434Z,3.20
2023-05-18T14:42:31.065Z,4.30
2023-05-18T14:47:33.741Z,4.28
2023-05-18T14:52:36.563Z,3.72
2023-05-18T14:57:39.264Z,3.88
2023-05-18T15:02:42.572Z,4.43
2023-05-18T15:07:45.286Z,4.28
2023-05-18T15:12:48.053Z,4.13
2023-05-18T15:17:50.860Z,3.50
2023-05-18T15:22:53.648Z,4.13
2023-05-18T15:27:59.380Z,4.40
2023-05-18T15:33:06.322Z,3.63
2023-05-18T15:38:09.245Z,3.70
2023-05-18T15:43:11.852Z,4.65
2023-05-18T15:48:14.560Z,3.97
2023-05-18T15:53:17.341Z,3.80
2023-05-18T15:58:20.055Z,4.47
2023-05-18T16:03:23.015Z,4.20
2023-05-18T16:08:25.849Z,4.28
2023-05-18T16:13:28.595Z,4.72
2023-05-18T16:18:31.608Z,4.68
2023-05-18T16:23:34.256Z,10.52
2023-05-18T16:28:36.965Z,4.13
2023-05-18T16:33:40.327Z,3.85
2023-05-18T16:38:43.010Z,4.20
2023-05-18T16:43:45.732Z,3.50
2023-05-18T16:48:48.514Z,4.50
2023-05-18T16:53:52.585Z,4.72
2023-05-18T16:58:55.284Z,5.03
2023-05-18T17:03:58.240Z,4.22
2023-05-18T17:09:01.222Z,4.25
2023-05-18T17:14:04.487Z,4.65
2023-05-18T17:19:08.060Z,4.75
2023-05-18T17:24:10.745Z,4.93
2023-05-18T17:29:15.064Z,5.10
2023-05-18T17:34:19.883Z,5.00
2023-05-18T17:39:22.694Z,5.35
2023-05-18T17:44:25.365Z,6.82
2023-05-18T17:49:28.093Z,5.63
2023-05-18T17:54:31.165Z,6.35
2023-05-18T17:59:36.140Z,6.90
2023-05-18T18:04:39.979Z,6.32
2023-05-18T18:09:42.744Z,6.45
2023-05-18T18:14:45.470Z,6.82
2023-05-18T18:19:48.166Z,6.70
2023-05-18T18:24:50.891Z,6.82
2023-05-18T18:29:53.544Z,6.60
2023-05-18T18:34:56.536Z,7.07
2023-05-18T18:39:59.172Z,6.13
2023-05-18T18:45:01.883Z,6.30
2023-05-18T18:50:08.166Z,6.57
2023-05-18T18:55:10.791Z,5.85
2023-05-18T19:00:17.353Z,6.65
2023-05-18T19:05:23.348Z,6.47
2023-05-18T19:10:26.319Z,6.47
2023-05-18T19:15:28.983Z,5.40
2023-05-18T19:20:31.834Z,6.03
2023-05-18T19:25:34.621Z,5.00
2023-05-18T19:30:37.491Z,5.30
2023-05-18T19:35:40.210Z,6.57
2023-05-18T19:40:42.858Z,6.38
2023-05-18T19:45:46.216Z,6.38
2023-05-18T19:50:48.992Z,6.95
2023-05-18T19:55:52.038Z,19.30
2023-05-18T20:00:54.951Z,7.97
2023-05-18T20:05:58.284Z,7.18
2023-05-18T20:11:01.055Z,7.95
2023-05-18T20:16:03.816Z,7.90
2023-05-18T20:21:06.933Z,7.60
2023-05-18T20:26:09.717Z,7.15
2023-05-18T20:31:12.541Z,7.32
2023-05-18T20:36:15.732Z,7.57
2023-05-18T20:41:20.058Z,6.95
2023-05-18T20:46:24.848Z,8.35
2023-05-18T20:51:28.315Z,6.85
2023-05-18T20:56:31.053Z,6.72
2023-05-18T21:01:39.425Z,6.90
2023-05-18T21:06:44.097Z,7.43
2023-05-18T21:11:47.060Z,5.97
2023-05-18T21:16:49.791Z,6.50
2023-05-18T21:21:52.475Z,6.38
2023-05-18T21:26:55.939Z,6.55
2023-05-18T21:31:59.829Z,7.00
2023-05-18T21:37:02.572Z,6.68
2023-05-18T21:42:05.578Z,6.28
2023-05-18T21:47:08.294Z,6.15
2023-05-18T21:52:11.054Z,6.57
2023-05-18T21:57:13.825Z,6.80
2023-05-18T22:02:16.714Z,6.50
2023-05-18T22:07:19.352Z,6.78
2023-05-18T22:12:22.207Z,6.68
2023-05-18T22:17:25.102Z,6.38
2023-05-18T22:22:30.608Z,6.13
2023-05-18T22:27:36.618Z,6.30
2023-05-18T22:32:39.575Z,5.30
2023-05-18T22:37:42.381Z,4.53
2023-05-18T22:42:45.004Z,4.20
2023-05-18T22:47:48.379Z,4.00
2023-05-18T22:52:51.363Z,4.10
2023-05-18T22:57:54.094Z,3.45
2023-05-18T23:02:57.024Z,3.25
2023-05-18T23:07:59.864Z,3.95
2023-05-18T23:13:02.615Z,3.55
2023-05-18T23:18:09.421Z,3.33
2023-05-18T23:23:12.334Z,3.70
2023-05-18T23:28:15.275Z,3.00
2023-05-18T23:33:18.297Z,2.75
2023-05-18T23:38:28.949Z,2.88
2023-05-18T23:43:31.943Z,3.60
2023-05-18T23:48:34.888Z,3.13
2023-05-18T23:53:37.914Z,3.75
2023-05-18T23:58:42.009Z,3.20
